sensor_id;sensor_type;location;lat;lon;timestamp;temperature;humidity
33955;DHT22;20233;50.804;7.126;2023-07-29T00:02:18;20.70;99.90
33955;DHT22;20233;50.804;7.126;2023-07-29T00:04:44;20.60;99.90
33955;DHT22;20233;50.804;7.126;2023-07-29T00:07:09;20.70;99.90
33955;DHT22;20233;50.804;7.126;2023-07-29T00:09:35;20.60;99.90
33955;DHT22;20233;50.804;7.126;2023-07-29T00:12:01;20.60;99.90
33955;DHT22;20233;50.804;7.126;2023-07-29T00:14:27;20.60;99.90
33955;DHT22;20233;50.804;7.126;2023-07-29T00:16:52;20.70;99.90
33955;DHT22;20233;50.804;7.126;2023-07-29T00:19:18;20.70;99.90
33955;DHT22;20233;50.804;7.126;2023-07-29T00:21:43;20.70;99.90
33955;DHT22;20233;50.804;7.126;2023-07-29T00:24:09;20.70;99.90
33955;DHT22;20233;50.804;7.126;2023-07-29T00:26:34;20.60;99.90
33955;DHT22;20233;50.804;7.126;2023-07-29T00:29:00;20.60;99.90
33955;DHT22;20233;50.804;7.126;2023-07-29T00:31:26;20.60;99.90
33955;DHT22;20233;50.804;7.126;2023-07-29T00:33:51;20.60;99.90
33955;DHT22;20233;50.804;7.126;2023-07-29T00:36:18;20.60;99.90
33955;DHT22;20233;50.804;7.126;2023-07-29T00:38:43;20.60;99.90
33955;DHT22;20233;50.804;7.126;2023-07-29T00:41:09;20.60;99.90
33955;DHT22;20233;50.804;7.126;2023-07-29T00:43:38;20.60;99.90
33955;DHT22;20233;50.804;7.126;2023-07-29T00:46:05;20.70;99.90
33955;DHT22;20233;50.804;7.126;2023-07-29T00:48:30;20.70;99.90
33955;DHT22;20233;50.804;7.126;2023-07-29T00:50:56;20.70;99.90
33955;DHT22;20233;50.804;7.126;2023-07-29T00:53:22;20.70;99.90
33955;DHT22;20233;50.804;7.126;2023-07-29T00:55:48;20.70;99.90
33955;DHT22;20233;50.804;7.126;2023-07-29T00:58:13;20.70;99.90
33955;DHT22;20233;50.804;7.126;2023-07-29T01:00:40;20.70;99.90
33955;DHT22;20233;50.804;7.126;2023-07-29T01:03:05;20.70;99.90
33955;DHT22;20233;50.804;7.126;2023-07-29T01:05:36;20.70;99.90
33955;DHT22;20233;50.804;7.126;2023-07-29T01:09:07;20.60;99.90
33955;DHT22;20233;50.804;7.126;2023-07-29T01:14:29;20.60;99.90
33955;DHT22;20233;50.804;7.126;2023-07-29T01:17:04;20.70;99.90
33955;DHT22;20233;50.804;7.126;2023-07-29T01:19:42;20.70;99.90
33955;DHT22;20233;50.804;7.126;2023-07-29T01:22:10;20.70;99.90
33955;DHT22;20233;50.804;7.126;2023-07-29T01:24:37;20.60;99.90
33955;DHT22;20233;50.804;7.126;2023-07-29T01:27:02;20.60;99.90
33955;DHT22;20233;50.804;7.126;2023-07-29T01:29:30;20.60;99.90
33955;DHT22;20233;50.804;7.126;2023-07-29T01:31:59;20.60;99.90
33955;DHT22;20233;50.804;7.126;2023-07-29T01:34:30;20.60;99.90
33955;DHT22;20233;50.804;7.126;2023-07-29T01:36:59;20.60;99.90
33955;DHT22;20233;50.804;7.126;2023-07-29T01:39:29;20.60;99.90
33955;DHT22;20233;50.804;7.126;2023-07-29T01:41:57;20.60;99.90
33955;DHT22;20233;50.804;7.126;2023-07-29T01:44:23;20.60;99.90
33955;DHT22;20233;50.804;7.126;2023-07-29T01:46:49;20.60;99.90
33955;DHT22;20233;50.804;7.126;2023-07-29T01:49:15;20.60;99.90
33955;DHT22;20233;50.804;7.126;2023-07-29T01:51:41;20.60;99.90
33955;DHT22;20233;50.804;7.126;2023-07-29T01:54:06;20.60;99.90
33955;DHT22;20233;50.804;7.126;2023-07-29T01:56:32;20.70;99.90
33955;DHT22;20233;50.804;7.126;2023-07-29T01:58:57;20.70;99.90
33955;DHT22;20233;50.804;7.126;2023-07-29T02:01:23;20.60;99.90
33955;DHT22;20233;50.804;7.126;2023-07-29T02:03:48;20.60;99.90
33955;DHT22;20233;50.804;7.126;2023-07-29T02:06:20;20.70;99.90
33955;DHT22;20233;50.804;7.126;2023-07-29T02:08:45;20.70;99.90
33955;DHT22;20233;50.804;7.126;2023-07-29T02:11:11;20.70;99.90
33955;DHT22;20233;50.804;7.126;2023-07-29T02:13:36;20.60;99.90
33955;DHT22;20233;50.804;7.126;2023-07-29T02:16:02;20.60;99.90
33955;DHT22;20233;50.804;7.126;2023-07-29T02:18:27;20.70;99.90
33955;DHT22;20233;50.804;7.126;2023-07-29T02:20:53;20.60;99.90
33955;DHT22;20233;50.804;7.126;2023-07-29T02:23:18;20.60;99.90
33955;DHT22;20233;50.804;7.126;2023-07-29T02:25:44;20.60;99.90
33955;DHT22;20233;50.804;7.126;2023-07-29T02:28:09;20.60;99.90
33955;DHT22;20233;50.804;7.126;2023-07-29T02:30:35;20.60;99.90
33955;DHT22;20233;50.804;7.126;2023-07-29T02:33:01;20.60;99.90
33955;DHT22;20233;50.804;7.126;2023-07-29T02:35:27;20.60;99.90
33955;DHT22;20233;50.804;7.126;2023-07-29T02:37:53;20.40;99.90
33955;DHT22;20233;50.804;7.126;2023-07-29T02:40:18;20.00;99.90
33955;DHT22;20233;50.804;7.126;2023-07-29T02:42:46;19.90;99.90
33955;DHT22;20233;50.804;7.126;2023-07-29T02:45:11;19.80;99.90
33955;DHT22;20233;50.804;7.126;2023-07-29T02:47:37;20.10;99.90
33955;DHT22;20233;50.804;7.126;2023-07-29T02:50:03;20.10;99.90
33955;DHT22;20233;50.804;7.126;2023-07-29T02:52:29;20.20;99.90
33955;DHT22;20233;50.804;7.126;2023-07-29T02:54:54;20.20;99.90
33955;DHT22;20233;50.804;7.126;2023-07-29T02:57:20;20.20;99.90
33955;DHT22;20233;50.804;7.126;2023-07-29T02:59:45;20.20;99.90
33955;DHT22;20233;50.804;7.126;2023-07-29T03:02:11;20.20;99.90
33955;DHT22;20233;50.804;7.126;2023-07-29T03:04:36;20.20;99.90
33955;DHT22;20233;50.804;7.126;2023-07-29T03:07:03;20.20;99.90
33955;DHT22;20233;50.804;7.126;2023-07-29T03:09:28;20.20;99.90
33955;DHT22;20233;50.804;7.126;2023-07-29T03:11:54;20.20;99.90
33955;DHT22;20233;50.804;7.126;2023-07-29T03:14:20;20.20;99.90
33955;DHT22;20233;50.804;7.126;2023-07-29T03:16:47;20.20;99.90
33955;DHT22;20233;50.804;7.126;2023-07-29T03:19:12;20.20;99.90
33955;DHT22;20233;50.804;7.126;2023-07-29T03:21:38;20.20;99.90
33955;DHT22;20233;50.804;7.126;2023-07-29T03:24:03;20.10;99.90
33955;DHT22;20233;50.804;7.126;2023-07-29T03:26:29;20.10;99.90
33955;DHT22;20233;50.804;7.126;2023-07-29T03:28:54;20.10;99.90
33955;DHT22;20233;50.804;7.126;2023-07-29T03:31:20;20.00;99.90
33955;DHT22;20233;50.804;7.126;2023-07-29T03:33:46;20.00;99.90
33955;DHT22;20233;50.804;7.126;2023-07-29T03:36:11;20.00;99.90
33955;DHT22;20233;50.804;7.126;2023-07-29T03:38:37;20.00;99.90
33955;DHT22;20233;50.804;7.126;2023-07-29T03:41:08;19.90;99.90
33955;DHT22;20233;50.804;7.126;2023-07-29T03:43:34;19.90;99.90
33955;DHT22;20233;50.804;7.126;2023-07-29T03:46:00;19.90;99.90
33955;DHT22;20233;50.804;7.126;2023-07-29T03:48:26;19.80;99.90
33955;DHT22;20233;50.804;7.126;2023-07-29T03:50:51;19.80;99.90
33955;DHT22;20233;50.804;7.126;2023-07-29T03:53:17;19.80;99.90
33955;DHT22;20233;50.804;7.126;2023-07-29T03:55:43;19.80;99.90
33955;DHT22;20233;50.804;7.126;2023-07-29T03:58:08;19.70;99.90
33955;DHT22;20233;50.804;7.126;2023-07-29T04:00:34;19.70;99.90
33955;DHT22;20233;50.804;7.126;2023-07-29T04:02:59;19.70;99.90
33955;DHT22;20233;50.804;7.126;2023-07-29T04:05:25;19.70;99.90
33955;DHT22;20233;50.804;7.126;2023-07-29T04:07:50;19.60;99.90
33955;DHT22;20233;50.804;7.126;2023-07-29T04:10:16;19.60;99.90
33955;DHT22;20233;50.804;7.126;2023-07-29T04:12:43;19.70;99.90
33955;DHT22;20233;50.804;7.126;2023-07-29T04:15:08;19.70;99.90
33955;DHT22;20233;50.804;7.126;2023-07-29T04:17:34;19.70;99.90
33955;DHT22;20233;50.804;7.126;2023-07-29T04:19:59;19.70;99.90
33955;DHT22;20233;50.804;7.126;2023-07-29T04:22:25;19.60;99.90
33955;DHT22;20233;50.804;7.126;2023-07-29T04:24:50;19.60;99.90
33955;DHT22;20233;50.804;7.126;2023-07-29T04:27:16;19.60;99.90
33955;DHT22;20233;50.804;7.126;2023-07-29T04:29:41;19.50;99.90
33955;DHT22;20233;50.804;7.126;2023-07-29T04:32:07;19.50;99.90
33955;DHT22;20233;50.804;7.126;2023-07-29T04:34:32;19.50;99.90
33955;DHT22;20233;50.804;7.126;2023-07-29T04:36:58;19.50;99.90
33955;DHT22;20233;50.804;7.126;2023-07-29T04:39:23;19.50;99.90
33955;DHT22;20233;50.804;7.126;2023-07-29T04:41:49;19.50;99.90
33955;DHT22;20233;50.804;7.126;2023-07-29T04:44:15;19.50;99.90
33955;DHT22;20233;50.804;7.126;2023-07-29T04:46:40;19.50;99.90
33955;DHT22;20233;50.804;7.126;2023-07-29T04:49:06;19.50;99.90
33955;DHT22;20233;50.804;7.126;2023-07-29T04:51:31;19.50;99.90
33955;DHT22;20233;50.804;7.126;2023-07-29T04:53:58;19.50;99.90
33955;DHT22;20233;50.804;7.126;2023-07-29T04:56:23;19.50;99.90
33955;DHT22;20233;50.804;7.126;2023-07-29T04:58:49;19.60;99.90
33955;DHT22;20233;50.804;7.126;2023-07-29T05:01:14;19.60;99.90
33955;DHT22;20233;50.804;7.126;2023-07-29T05:03:40;19.60;99.90
33955;DHT22;20233;50.804;7.126;2023-07-29T05:06:06;19.50;99.90
33955;DHT22;20233;50.804;7.126;2023-07-29T05:08:31;19.50;99.90
33955;DHT22;20233;50.804;7.126;2023-07-29T05:10:57;19.60;99.90
33955;DHT22;20233;50.804;7.126;2023-07-29T05:13:23;19.60;99.90
33955;DHT22;20233;50.804;7.126;2023-07-29T05:15:48;19.60;99.90
33955;DHT22;20233;50.804;7.126;2023-07-29T05:18:15;19.60;99.90
33955;DHT22;20233;50.804;7.126;2023-07-29T05:20:41;19.60;99.90
33955;DHT22;20233;50.804;7.126;2023-07-29T05:23:06;19.60;99.90
33955;DHT22;20233;50.804;7.126;2023-07-29T05:25:32;19.60;99.90
33955;DHT22;20233;50.804;7.126;2023-07-29T05:28:01;19.60;99.90
33955;DHT22;20233;50.804;7.126;2023-07-29T05:30:26;19.60;99.90
33955;DHT22;20233;50.804;7.126;2023-07-29T05:32:59;19.70;99.90
33955;DHT22;20233;50.804;7.126;2023-07-29T05:35:24;19.70;99.90
33955;DHT22;20233;50.804;7.126;2023-07-29T05:37:50;19.70;99.90
33955;DHT22;20233;50.804;7.126;2023-07-29T05:40:16;19.80;99.90
33955;DHT22;20233;50.804;7.126;2023-07-29T05:42:42;19.80;99.90
33955;DHT22;20233;50.804;7.126;2023-07-29T05:45:08;19.90;99.90
33955;DHT22;20233;50.804;7.126;2023-07-29T05:47:34;19.90;99.90
33955;DHT22;20233;50.804;7.126;2023-07-29T05:50:00;19.90;99.90
33955;DHT22;20233;50.804;7.126;2023-07-29T05:52:30;19.90;99.90
33955;DHT22;20233;50.804;7.126;2023-07-29T05:54:55;19.90;99.90
33955;DHT22;20233;50.804;7.126;2023-07-29T05:57:21;19.90;99.90
33955;DHT22;20233;50.804;7.126;2023-07-29T05:59:46;19.90;99.90
33955;DHT22;20233;50.804;7.126;2023-07-29T06:02:12;19.90;99.90
33955;DHT22;20233;50.804;7.126;2023-07-29T06:04:37;19.90;99.90
33955;DHT22;20233;50.804;7.126;2023-07-29T06:07:03;20.00;99.90
33955;DHT22;20233;50.804;7.126;2023-07-29T06:09:29;20.00;99.90
33955;DHT22;20233;50.804;7.126;2023-07-29T06:11:54;20.10;99.90
33955;DHT22;20233;50.804;7.126;2023-07-29T06:14:20;20.20;99.90
33955;DHT22;20233;50.804;7.126;2023-07-29T06:16:45;20.20;99.90
33955;DHT22;20233;50.804;7.126;2023-07-29T06:19:11;20.20;99.90
33955;DHT22;20233;50.804;7.126;2023-07-29T06:21:36;20.20;99.90
33955;DHT22;20233;50.804;7.126;2023-07-29T06:24:02;20.20;99.90
33955;DHT22;20233;50.804;7.126;2023-07-29T06:26:28;20.20;99.90
33955;DHT22;20233;50.804;7.126;2023-07-29T06:28:54;20.20;99.90
33955;DHT22;20233;50.804;7.126;2023-07-29T06:31:19;20.20;99.90
33955;DHT22;20233;50.804;7.126;2023-07-29T06:33:46;20.30;99.90
33955;DHT22;20233;50.804;7.126;2023-07-29T06:36:11;20.30;99.90
33955;DHT22;20233;50.804;7.126;2023-07-29T06:38:37;20.20;99.90
33955;DHT22;20233;50.804;7.126;2023-07-29T06:41:04;20.00;99.90
33955;DHT22;20233;50.804;7.126;2023-07-29T06:43:29;19.90;99.90
33955;DHT22;20233;50.804;7.126;2023-07-29T06:45:55;20.00;99.90
33955;DHT22;20233;50.804;7.126;2023-07-29T06:48:21;20.20;99.90
33955;DHT22;20233;50.804;7.126;2023-07-29T06:50:46;20.20;99.90
33955;DHT22;20233;50.804;7.126;2023-07-29T06:53:12;20.10;99.90
33955;DHT22;20233;50.804;7.126;2023-07-29T06:55:37;20.00;99.90
33955;DHT22;20233;50.804;7.126;2023-07-29T06:58:03;20.00;99.90
33955;DHT22;20233;50.804;7.126;2023-07-29T07:00:29;20.10;99.90
33955;DHT22;20233;50.804;7.126;2023-07-29T07:02:54;19.70;99.90
33955;DHT22;20233;50.804;7.126;2023-07-29T07:05:20;19.90;99.90
33955;DHT22;20233;50.804;7.126;2023-07-29T07:07:46;19.90;99.90
33955;DHT22;20233;50.804;7.126;2023-07-29T07:10:11;19.80;99.90
33955;DHT22;20233;50.804;7.126;2023-07-29T07:12:37;19.80;99.90
33955;DHT22;20233;50.804;7.126;2023-07-29T07:15:03;19.70;99.90
33955;DHT22;20233;50.804;7.126;2023-07-29T07:17:28;19.80;99.90
33955;DHT22;20233;50.804;7.126;2023-07-29T07:19:54;20.10;99.90
33955;DHT22;20233;50.804;7.126;2023-07-29T07:22:19;20.20;99.90
33955;DHT22;20233;50.804;7.126;2023-07-29T07:24:45;20.20;99.90
33955;DHT22;20233;50.804;7.126;2023-07-29T07:27:10;20.30;99.90
33955;DHT22;20233;50.804;7.126;2023-07-29T07:29:36;20.30;99.90
33955;DHT22;20233;50.804;7.126;2023-07-29T07:32:01;20.50;99.90
33955;DHT22;20233;50.804;7.126;2023-07-29T07:34:27;20.60;99.90
33955;DHT22;20233;50.804;7.126;2023-07-29T07:36:53;20.50;99.90
33955;DHT22;20233;50.804;7.126;2023-07-29T07:39:19;20.40;99.90
33955;DHT22;20233;50.804;7.126;2023-07-29T07:41:44;20.50;99.90
33955;DHT22;20233;50.804;7.126;2023-07-29T07:44:10;20.60;99.90
33955;DHT22;20233;50.804;7.126;2023-07-29T07:46:36;20.60;99.90
33955;DHT22;20233;50.804;7.126;2023-07-29T07:49:02;20.70;99.90
33955;DHT22;20233;50.804;7.126;2023-07-29T07:51:27;20.50;99.90
33955;DHT22;20233;50.804;7.126;2023-07-29T07:53:53;20.70;99.90
33955;DHT22;20233;50.804;7.126;2023-07-29T07:56:18;20.70;99.90
33955;DHT22;20233;50.804;7.126;2023-07-29T07:58:44;20.80;99.90
33955;DHT22;20233;50.804;7.126;2023-07-29T08:01:10;20.80;99.90
33955;DHT22;20233;50.804;7.126;2023-07-29T08:03:36;20.80;99.90
33955;DHT22;20233;50.804;7.126;2023-07-29T08:06:02;21.00;99.90
33955;DHT22;20233;50.804;7.126;2023-07-29T08:08:28;21.00;99.90
33955;DHT22;20233;50.804;7.126;2023-07-29T08:10:54;21.30;99.90
33955;DHT22;20233;50.804;7.126;2023-07-29T08:13:22;21.50;99.90
33955;DHT22;20233;50.804;7.126;2023-07-29T08:15:48;21.60;99.90
33955;DHT22;20233;50.804;7.126;2023-07-29T08:18:15;21.60;99.90
33955;DHT22;20233;50.804;7.126;2023-07-29T08:20:41;21.70;99.90
33955;DHT22;20233;50.804;7.126;2023-07-29T08:23:07;21.70;99.90
33955;DHT22;20233;50.804;7.126;2023-07-29T08:25:32;21.70;99.90
33955;DHT22;20233;50.804;7.126;2023-07-29T08:27:58;21.80;99.90
33955;DHT22;20233;50.804;7.126;2023-07-29T08:30:23;21.80;99.90
33955;DHT22;20233;50.804;7.126;2023-07-29T08:32:49;21.80;99.90
33955;DHT22;20233;50.804;7.126;2023-07-29T08:35:15;21.90;99.90
33955;DHT22;20233;50.804;7.126;2023-07-29T08:37:41;21.90;99.90
33955;DHT22;20233;50.804;7.126;2023-07-29T08:40:07;22.10;99.90
33955;DHT22;20233;50.804;7.126;2023-07-29T08:42:33;22.40;99.90
33955;DHT22;20233;50.804;7.126;2023-07-29T08:45:06;22.20;99.90
33955;DHT22;20233;50.804;7.126;2023-07-29T08:47:32;22.20;99.90
33955;DHT22;20233;50.804;7.126;2023-07-29T08:49:59;22.30;99.90
33955;DHT22;20233;50.804;7.126;2023-07-29T08:52:27;22.20;99.90
33955;DHT22;20233;50.804;7.126;2023-07-29T08:54:54;22.20;99.90
33955;DHT22;20233;50.804;7.126;2023-07-29T08:57:20;22.20;99.90
33955;DHT22;20233;50.804;7.126;2023-07-29T08:59:47;22.20;99.90
33955;DHT22;20233;50.804;7.126;2023-07-29T09:02:12;22.10;99.90
33955;DHT22;20233;50.804;7.126;2023-07-29T09:04:38;22.00;99.90
33955;DHT22;20233;50.804;7.126;2023-07-29T09:07:05;22.00;99.90
33955;DHT22;20233;50.804;7.126;2023-07-29T09:09:32;21.90;99.90
33955;DHT22;20233;50.804;7.126;2023-07-29T09:11:57;21.80;99.90
33955;DHT22;20233;50.804;7.126;2023-07-29T09:14:24;21.80;99.90
33955;DHT22;20233;50.804;7.126;2023-07-29T09:16:49;21.80;99.90
33955;DHT22;20233;50.804;7.126;2023-07-29T09:19:15;21.70;99.90
33955;DHT22;20233;50.804;7.126;2023-07-29T09:21:42;21.70;99.90
33955;DHT22;20233;50.804;7.126;2023-07-29T09:24:08;21.70;99.90
33955;DHT22;20233;50.804;7.126;2023-07-29T09:26:34;21.70;99.90
33955;DHT22;20233;50.804;7.126;2023-07-29T09:29:00;21.80;99.90
33955;DHT22;20233;50.804;7.126;2023-07-29T09:31:27;21.80;99.90
33955;DHT22;20233;50.804;7.126;2023-07-29T09:33:59;21.80;99.90
33955;DHT22;20233;50.804;7.126;2023-07-29T09:36:25;21.80;99.90
33955;DHT22;20233;50.804;7.126;2023-07-29T09:38:55;21.90;99.90
33955;DHT22;20233;50.804;7.126;2023-07-29T09:41:28;22.00;99.90
33955;DHT22;20233;50.804;7.126;2023-07-29T09:44:00;22.10;99.90
33955;DHT22;20233;50.804;7.126;2023-07-29T09:46:32;22.10;99.90
33955;DHT22;20233;50.804;7.126;2023-07-29T09:48:59;22.20;99.90
33955;DHT22;20233;50.804;7.126;2023-07-29T09:51:26;22.20;99.90
33955;DHT22;20233;50.804;7.126;2023-07-29T09:53:52;22.10;99.90
33955;DHT22;20233;50.804;7.126;2023-07-29T09:56:18;22.00;99.90
33955;DHT22;20233;50.804;7.126;2023-07-29T09:58:48;22.00;99.90
33955;DHT22;20233;50.804;7.126;2023-07-29T10:01:15;22.00;99.90
33955;DHT22;20233;50.804;7.126;2023-07-29T10:03:40;21.90;99.90
33955;DHT22;20233;50.804;7.126;2023-07-29T10:06:07;21.90;99.90
33955;DHT22;20233;50.804;7.126;2023-07-29T10:08:34;21.90;99.90
33955;DHT22;20233;50.804;7.126;2023-07-29T10:11:06;21.90;99.90
33955;DHT22;20233;50.804;7.126;2023-07-29T10:13:33;22.00;99.90
33955;DHT22;20233;50.804;7.126;2023-07-29T10:16:01;22.00;99.90
33955;DHT22;20233;50.804;7.126;2023-07-29T10:18:31;22.10;99.90
33955;DHT22;20233;50.804;7.126;2023-07-29T10:21:01;22.00;99.90
33955;DHT22;20233;50.804;7.126;2023-07-29T10:23:35;22.00;99.90
33955;DHT22;20233;50.804;7.126;2023-07-29T10:26:22;22.00;99.90
33955;DHT22;20233;50.804;7.126;2023-07-29T10:29:59;22.10;99.90
33955;DHT22;20233;50.804;7.126;2023-07-29T10:33:02;22.20;99.90
33955;DHT22;20233;50.804;7.126;2023-07-29T10:35:29;22.10;99.90
33955;DHT22;20233;50.804;7.126;2023-07-29T10:37:56;22.10;99.90
33955;DHT22;20233;50.804;7.126;2023-07-29T10:40:26;22.00;99.90
33955;DHT22;20233;50.804;7.126;2023-07-29T10:43:06;22.00;99.90
33955;DHT22;20233;50.804;7.126;2023-07-29T10:45:38;22.00;99.90
33955;DHT22;20233;50.804;7.126;2023-07-29T10:48:11;21.90;99.90
33955;DHT22;20233;50.804;7.126;2023-07-29T10:50:36;21.80;99.90
33955;DHT22;20233;50.804;7.126;2023-07-29T10:53:03;21.90;99.90
33955;DHT22;20233;50.804;7.126;2023-07-29T10:55:36;21.80;99.90
33955;DHT22;20233;50.804;7.126;2023-07-29T10:58:12;21.80;99.90
33955;DHT22;20233;50.804;7.126;2023-07-29T11:00:42;21.60;99.90
33955;DHT22;20233;50.804;7.126;2023-07-29T11:03:09;21.50;99.90
33955;DHT22;20233;50.804;7.126;2023-07-29T11:05:46;21.60;99.90
33955;DHT22;20233;50.804;7.126;2023-07-29T11:08:23;21.60;99.90
33955;DHT22;20233;50.804;7.126;2023-07-29T11:11:07;21.70;99.90
33955;DHT22;20233;50.804;7.126;2023-07-29T11:13:35;21.70;99.90
33955;DHT22;20233;50.804;7.126;2023-07-29T11:16:02;21.70;99.90
33955;DHT22;20233;50.804;7.126;2023-07-29T11:18:30;21.70;99.90
33955;DHT22;20233;50.804;7.126;2023-07-29T11:20:57;21.80;99.90
33955;DHT22;20233;50.804;7.126;2023-07-29T11:23:34;21.80;99.90
33955;DHT22;20233;50.804;7.126;2023-07-29T11:26:00;21.90;99.90
33955;DHT22;20233;50.804;7.126;2023-07-29T11:28:27;21.90;99.90
33955;DHT22;20233;50.804;7.126;2023-07-29T11:30:54;21.90;99.90
33955;DHT22;20233;50.804;7.126;2023-07-29T11:33:21;21.90;99.90
33955;DHT22;20233;50.804;7.126;2023-07-29T11:35:47;21.90;99.90
33955;DHT22;20233;50.804;7.126;2023-07-29T11:38:17;21.90;99.90
33955;DHT22;20233;50.804;7.126;2023-07-29T11:40:43;22.00;99.90
33955;DHT22;20233;50.804;7.126;2023-07-29T11:43:09;22.10;99.90
33955;DHT22;20233;50.804;7.126;2023-07-29T11:45:34;22.20;99.90
33955;DHT22;20233;50.804;7.126;2023-07-29T11:48:06;22.20;99.90
33955;DHT22;20233;50.804;7.126;2023-07-29T11:50:35;22.20;99.90
33955;DHT22;20233;50.804;7.126;2023-07-29T11:53:00;22.30;99.90
33955;DHT22;20233;50.804;7.126;2023-07-29T11:55:26;22.40;99.90
33955;DHT22;20233;50.804;7.126;2023-07-29T11:57:52;22.20;99.90
33955;DHT22;20233;50.804;7.126;2023-07-29T12:00:20;22.30;99.90
33955;DHT22;20233;50.804;7.126;2023-07-29T12:02:47;22.50;99.90
33955;DHT22;20233;50.804;7.126;2023-07-29T12:05:14;22.60;99.90
33955;DHT22;20233;50.804;7.126;2023-07-29T12:07:42;22.60;99.90
33955;DHT22;20233;50.804;7.126;2023-07-29T12:10:09;22.80;99.90
33955;DHT22;20233;50.804;7.126;2023-07-29T12:12:46;23.00;99.90
33955;DHT22;20233;50.804;7.126;2023-07-29T12:15:12;22.90;99.90
33955;DHT22;20233;50.804;7.126;2023-07-29T12:17:41;22.90;99.90
33955;DHT22;20233;50.804;7.126;2023-07-29T12:20:10;22.90;99.90
33955;DHT22;20233;50.804;7.126;2023-07-29T12:22:36;22.90;99.90
33955;DHT22;20233;50.804;7.126;2023-07-29T12:25:03;23.00;99.90
33955;DHT22;20233;50.804;7.126;2023-07-29T12:27:30;23.00;99.90
33955;DHT22;20233;50.804;7.126;2023-07-29T12:29:56;23.10;99.90
33955;DHT22;20233;50.804;7.126;2023-07-29T12:32:25;23.20;99.90
33955;DHT22;20233;50.804;7.126;2023-07-29T12:34:53;23.00;99.90
33955;DHT22;20233;50.804;7.126;2023-07-29T12:37:19;22.80;99.90
33955;DHT22;20233;50.804;7.126;2023-07-29T12:39:50;23.20;99.90
33955;DHT22;20233;50.804;7.126;2023-07-29T12:42:16;23.40;99.90
33955;DHT22;20233;50.804;7.126;2023-07-29T12:44:42;23.70;99.90
33955;DHT22;20233;50.804;7.126;2023-07-29T12:47:07;23.80;99.90
33955;DHT22;20233;50.804;7.126;2023-07-29T12:49:40;24.00;99.90
33955;DHT22;20233;50.804;7.126;2023-07-29T12:52:28;24.10;99.90
33955;DHT22;20233;50.804;7.126;2023-07-29T12:54:53;24.20;99.90
33955;DHT22;20233;50.804;7.126;2023-07-29T12:57:19;24.00;99.90
33955;DHT22;20233;50.804;7.126;2023-07-29T12:59:44;24.20;99.90
33955;DHT22;20233;50.804;7.126;2023-07-29T13:02:10;23.90;99.90
33955;DHT22;20233;50.804;7.126;2023-07-29T13:04:35;24.00;99.90
33955;DHT22;20233;50.804;7.126;2023-07-29T13:07:01;24.00;99.90
33955;DHT22;20233;50.804;7.126;2023-07-29T13:09:27;24.00;99.90
33955;DHT22;20233;50.804;7.126;2023-07-29T13:11:53;24.20;99.90
33955;DHT22;20233;50.804;7.126;2023-07-29T13:14:18;24.00;99.90
33955;DHT22;20233;50.804;7.126;2023-07-29T13:16:44;24.00;99.90
33955;DHT22;20233;50.804;7.126;2023-07-29T13:19:10;24.00;99.90
33955;DHT22;20233;50.804;7.126;2023-07-29T13:21:35;23.90;99.90
33955;DHT22;20233;50.804;7.126;2023-07-29T13:24:01;23.90;99.90
33955;DHT22;20233;50.804;7.126;2023-07-29T13:26:26;23.70;99.90
33955;DHT22;20233;50.804;7.126;2023-07-29T13:28:52;23.70;99.90
33955;DHT22;20233;50.804;7.126;2023-07-29T13:31:17;23.80;99.90
33955;DHT22;20233;50.804;7.126;2023-07-29T13:33:43;23.60;99.90
33955;DHT22;20233;50.804;7.126;2023-07-29T13:36:08;23.60;99.90
33955;DHT22;20233;50.804;7.126;2023-07-29T13:38:34;23.50;99.90
33955;DHT22;20233;50.804;7.126;2023-07-29T13:40:59;23.40;99.90
33955;DHT22;20233;50.804;7.126;2023-07-29T13:43:25;23.20;99.90
33955;DHT22;20233;50.804;7.126;2023-07-29T13:45:51;23.10;99.90
33955;DHT22;20233;50.804;7.126;2023-07-29T13:48:17;23.20;99.90
33955;DHT22;20233;50.804;7.126;2023-07-29T13:50:43;23.10;99.90
33955;DHT22;20233;50.804;7.126;2023-07-29T13:53:09;22.90;99.90
33955;DHT22;20233;50.804;7.126;2023-07-29T13:58:00;22.90;99.90
33955;DHT22;20233;50.804;7.126;2023-07-29T14:00:26;23.00;99.90
33955;DHT22;20233;50.804;7.126;2023-07-29T14:02:52;23.00;99.90
33955;DHT22;20233;50.804;7.126;2023-07-29T14:05:18;22.70;99.90
33955;DHT22;20233;50.804;7.126;2023-07-29T14:07:44;22.90;99.90
33955;DHT22;20233;50.804;7.126;2023-07-29T14:10:09;22.70;99.90
33955;DHT22;20233;50.804;7.126;2023-07-29T14:12:35;22.90;99.90
33955;DHT22;20233;50.804;7.126;2023-07-29T14:15:00;22.30;99.90
33955;DHT22;20233;50.804;7.126;2023-07-29T14:17:26;22.40;99.90
33955;DHT22;20233;50.804;7.126;2023-07-29T14:19:52;22.00;99.90
33955;DHT22;20233;50.804;7.126;2023-07-29T14:22:19;21.70;99.90
33955;DHT22;20233;50.804;7.126;2023-07-29T14:24:44;21.50;99.90
33955;DHT22;20233;50.804;7.126;2023-07-29T14:27:10;21.30;99.90
33955;DHT22;20233;50.804;7.126;2023-07-29T14:29:35;21.40;99.90
33955;DHT22;20233;50.804;7.126;2023-07-29T14:32:03;21.50;99.90
33955;DHT22;20233;50.804;7.126;2023-07-29T14:34:28;21.80;99.90
33955;DHT22;20233;50.804;7.126;2023-07-29T14:36:54;21.90;99.90
33955;DHT22;20233;50.804;7.126;2023-07-29T14:39:20;21.90;99.90
33955;DHT22;20233;50.804;7.126;2023-07-29T14:41:45;21.90;99.90
33955;DHT22;20233;50.804;7.126;2023-07-29T14:44:11;21.90;99.90
33955;DHT22;20233;50.804;7.126;2023-07-29T14:46:36;21.90;99.90
33955;DHT22;20233;50.804;7.126;2023-07-29T14:49:02;22.00;99.90
33955;DHT22;20233;50.804;7.126;2023-07-29T14:51:28;21.90;99.90
33955;DHT22;20233;50.804;7.126;2023-07-29T14:53:53;21.90;99.90
33955;DHT22;20233;50.804;7.126;2023-07-29T14:56:20;21.90;99.90
33955;DHT22;20233;50.804;7.126;2023-07-29T14:58:46;22.00;99.90
33955;DHT22;20233;50.804;7.126;2023-07-29T15:01:12;21.90;99.90
33955;DHT22;20233;50.804;7.126;2023-07-29T15:03:37;21.30;99.90
33955;DHT22;20233;50.804;7.126;2023-07-29T15:06:03;21.30;99.90
33955;DHT22;20233;50.804;7.126;2023-07-29T15:08:28;21.20;99.90
33955;DHT22;20233;50.804;7.126;2023-07-29T15:10:54;21.50;99.90
33955;DHT22;20233;50.804;7.126;2023-07-29T15:13:21;21.50;99.90
33955;DHT22;20233;50.804;7.126;2023-07-29T15:15:47;21.70;99.90
33955;DHT22;20233;50.804;7.126;2023-07-29T15:18:15;21.90;99.90
33955;DHT22;20233;50.804;7.126;2023-07-29T15:20:40;22.00;99.90
33955;DHT22;20233;50.804;7.126;2023-07-29T15:23:06;22.10;99.90
33955;DHT22;20233;50.804;7.126;2023-07-29T15:25:31;22.10;99.90
33955;DHT22;20233;50.804;7.126;2023-07-29T15:27:57;22.10;99.90
33955;DHT22;20233;50.804;7.126;2023-07-29T15:30:23;22.20;99.90
33955;DHT22;20233;50.804;7.126;2023-07-29T15:32:49;22.20;99.90
33955;DHT22;20233;50.804;7.126;2023-07-29T15:35:15;22.30;99.90